sensor_id;sensor_type;location;lat;lon;timestamp;pressure;altitude;pressure_sealevel;temperature;humidity
71057;BME280;58380;48.312;9.246;2023-10-08T07:14:12;94571.19;;;7.44;100.00
71057;BME280;58380;48.312;9.246;2023-10-08T07:17:15;94579.56;;;7.60;100.00
71057;BME280;58380;48.312;9.246;2023-10-08T07:20:19;94572.41;;;7.67;100.00
71057;BME280;58380;48.312;9.246;2023-10-08T07:23:23;94578.72;;;7.84;100.00
71057;BME280;58380;48.312;9.246;2023-10-08T07:26:34;94566.84;;;8.00;100.00
71057;BME280;58380;48.312;9.246;2023-10-08T07:29:37;94567.28;;;8.15;100.00
71057;BME280;58380;48.312;9.246;2023-10-08T07:32:37;94535.25;;;8.18;100.00
71057;BME280;58380;48.312;9.246;2023-10-08T07:35:38;94553.25;;;8.40;100.00
71057;BME280;58380;48.312;9.246;2023-10-08T07:38:42;94556.75;;;8.52;100.00
71057;BME280;58380;48.312;9.246;2023-10-08T07:41:42;94557.63;;;8.64;100.00
71057;BME280;58380;48.312;9.246;2023-10-08T07:44:43;94551.72;;;8.81;100.00
71057;BME280;58380;48.312;9.246;2023-10-08T07:47:44;94531.03;;;8.84;100.00
71057;BME280;58380;48.312;9.246;2023-10-08T07:50:45;94546.78;;;9.15;100.00
71057;BME280;58380;48.312;9.246;2023-10-08T07:53:46;94549.22;;;9.28;100.00
71057;BME280;58380;48.312;9.246;2023-10-08T07:56:46;94549.56;;;9.32;100.00
71057;BME280;58380;48.312;9.246;2023-10-08T07:59:49;94557.03;;;9.46;100.00
71057;BME280;58380;48.312;9.246;2023-10-08T08:02:54;94557.63;;;9.60;100.00
71057;BME280;58380;48.312;9.246;2023-10-08T08:05:57;94531.03;;;9.62;100.00
71057;BME280;58380;48.312;9.246;2023-10-08T08:08:58;94554.53;;;9.87;100.00
71057;BME280;58380;48.312;9.246;2023-10-08T08:11:59;94547.53;;;9.92;100.00
71057;BME280;58380;48.312;9.246;2023-10-08T08:14:59;94555.75;;;10.08;100.00
71057;BME280;58380;48.312;9.246;2023-10-08T08:18:03;94559.44;;;10.30;100.00
71057;BME280;58380;48.312;9.246;2023-10-08T08:21:09;94546.13;;;10.37;100.00
71057;BME280;58380;48.312;9.246;2023-10-08T08:24:14;94561.72;;;10.79;100.00
71057;BME280;58380;48.312;9.246;2023-10-08T08:27:28;94552.91;;;11.19;100.00
71057;BME280;58380;48.312;9.246;2023-10-08T08:30:32;94559.66;;;11.77;100.00
71057;BME280;58380;48.312;9.246;2023-10-08T08:33:34;94554.56;;;12.26;100.00
71057;BME280;58380;48.312;9.246;2023-10-08T08:36:53;94550.06;;;12.71;100.00
71057;BME280;58380;48.312;9.246;2023-10-08T08:39:57;94550.94;;;13.04;98.97
71057;BME280;58380;48.312;9.246;2023-10-08T08:42:59;94545.53;;;13.21;98.77
71057;BME280;58380;48.312;9.246;2023-10-08T08:46:03;94553.75;;;13.46;98.87
71057;BME280;58380;48.312;9.246;2023-10-08T08:49:08;94548.31;;;13.63;98.97
71057;BME280;58380;48.312;9.246;2023-10-08T08:52:08;94567.50;;;13.75;98.76
71057;BME280;58380;48.312;9.246;2023-10-08T08:55:09;94567.22;;;13.77;97.91
71057;BME280;58380;48.312;9.246;2023-10-08T08:58:14;94553.69;;;13.73;99.64
71057;BME280;58380;48.312;9.246;2023-10-08T09:01:17;94555.06;;;13.81;100.00
71057;BME280;58380;48.312;9.246;2023-10-08T09:04:28;94572.00;;;14.17;100.00
71057;BME280;58380;48.312;9.246;2023-10-08T09:07:30;94569.09;;;14.61;88.97
71057;BME280;58380;48.312;9.246;2023-10-08T09:10:32;94562.06;;;15.08;76.30
71057;BME280;58380;48.312;9.246;2023-10-08T09:13:37;94555.47;;;15.87;64.58
71057;BME280;58380;48.312;9.246;2023-10-08T09:16:38;94561.31;;;17.00;56.51
71057;BME280;58380;48.312;9.246;2023-10-08T09:19:38;94558.09;;;17.87;49.79
71057;BME280;58380;48.312;9.246;2023-10-08T09:22:39;94568.22;;;18.20;49.31
71057;BME280;58380;48.312;9.246;2023-10-08T09:25:40;94566.78;;;18.32;45.64
71057;BME280;58380;48.312;9.246;2023-10-08T09:28:45;94573.72;;;18.82;43.77
71057;BME280;58380;48.312;9.246;2023-10-08T09:31:54;94574.09;;;18.94;43.57
71057;BME280;58380;48.312;9.246;2023-10-08T09:34:56;94575.41;;;19.39;42.42
71057;BME280;58380;48.312;9.246;2023-10-08T09:37:58;94579.81;;;19.68;41.05
71057;BME280;58380;48.312;9.246;2023-10-08T09:40:59;94584.41;;;20.00;40.38
71057;BME280;58380;48.312;9.246;2023-10-08T09:44:03;94587.78;;;20.06;40.60
71057;BME280;58380;48.312;9.246;2023-10-08T09:47:07;94589.94;;;20.23;39.36
71057;BME280;58380;48.312;9.246;2023-10-08T09:50:10;94568.56;;;20.32;38.34
71057;BME280;58380;48.312;9.246;2023-10-08T09:53:13;94569.81;;;20.39;38.22
71057;BME280;58380;48.312;9.246;2023-10-08T09:56:19;94590.56;;;20.47;38.44
71057;BME280;58380;48.312;9.246;2023-10-08T09:59:21;94591.88;;;20.50;40.38
71057;BME280;58380;48.312;9.246;2023-10-08T10:02:23;94578.75;;;20.48;39.68
71057;BME280;58380;48.312;9.246;2023-10-08T10:05:36;94582.78;;;20.65;39.34
71057;BME280;58380;48.312;9.246;2023-10-08T10:08:36;94594.09;;;20.89;36.84
71057;BME280;58380;48.312;9.246;2023-10-08T10:11:37;94587.22;;;20.83;37.16
71057;BME280;58380;48.312;9.246;2023-10-08T10:14:41;94588.63;;;20.81;37.24
71057;BME280;58380;48.312;9.246;2023-10-08T10:17:43;94587.53;;;20.82;39.12
71057;BME280;58380;48.312;9.246;2023-10-08T10:20:52;94598.19;;;20.87;37.12
71057;BME280;58380;48.312;9.246;2023-10-08T10:24:00;94594.28;;;20.93;37.17
71057;BME280;58380;48.312;9.246;2023-10-08T10:27:14;94602.63;;;21.19;36.39
71057;BME280;58380;48.312;9.246;2023-10-08T10:30:15;94596.25;;;21.15;37.40
71057;BME280;58380;48.312;9.246;2023-10-08T10:33:18;94594.09;;;21.17;36.89
71057;BME280;58380;48.312;9.246;2023-10-08T10:36:20;94594.25;;;21.21;36.91
71057;BME280;58380;48.312;9.246;2023-10-08T10:39:23;94604.72;;;21.22;38.05
71057;BME280;58380;48.312;9.246;2023-10-08T10:42:28;94593.25;;;21.17;38.74
71057;BME280;58380;48.312;9.246;2023-10-08T10:45:29;94596.25;;;21.15;39.20
71057;BME280;58380;48.312;9.246;2023-10-08T10:48:36;94595.47;;;21.15;40.06
71057;BME280;58380;48.312;9.246;2023-10-08T10:51:39;94578.75;;;21.04;39.69
71057;BME280;58380;48.312;9.246;2023-10-08T10:54:41;94588.72;;;21.03;38.30
71057;BME280;58380;48.312;9.246;2023-10-08T10:57:53;94590.00;;;21.20;38.36
71057;BME280;58380;48.312;9.246;2023-10-08T11:01:11;94591.56;;;21.21;38.35
71057;BME280;58380;48.312;9.246;2023-10-08T11:06:40;94571.50;;;21.18;38.69
71057;BME280;58380;48.312;9.246;2023-10-08T11:09:41;94577.16;;;21.17;39.92
71057;BME280;58380;48.312;9.246;2023-10-08T11:12:46;94577.97;;;21.03;39.68
71057;BME280;58380;48.312;9.246;2023-10-08T11:15:54;94581.06;;;21.10;39.96
71057;BME280;58380;48.312;9.246;2023-10-08T11:18:58;94567.34;;;20.98;40.41
71057;BME280;58380;48.312;9.246;2023-10-08T11:22:01;94567.75;;;21.05;39.01
71057;BME280;58380;48.312;9.246;2023-10-08T11:25:02;94565.44;;;21.13;39.36
71057;BME280;58380;48.312;9.246;2023-10-08T11:28:06;94563.03;;;21.25;39.44
71057;BME280;58380;48.312;9.246;2023-10-08T11:31:12;94562.81;;;21.35;39.37
71057;BME280;58380;48.312;9.246;2023-10-08T11:34:15;94565.47;;;21.49;38.78
71057;BME280;58380;48.312;9.246;2023-10-08T11:37:27;94564.47;;;21.81;38.29
71057;BME280;58380;48.312;9.246;2023-10-08T11:40:28;94560.13;;;21.94;38.28
71057;BME280;58380;48.312;9.246;2023-10-08T11:43:28;94557.63;;;21.97;37.61
71057;BME280;58380;48.312;9.246;2023-10-08T11:46:30;94557.94;;;21.96;37.62
71057;BME280;58380;48.312;9.246;2023-10-08T11:49:41;94551.84;;;22.04;39.20
71057;BME280;58380;48.312;9.246;2023-10-08T11:52:54;94549.97;;;22.13;37.09
71057;BME280;58380;48.312;9.246;2023-10-08T11:55:59;94537.44;;;22.09;36.96
71057;BME280;58380;48.312;9.246;2023-10-08T11:59:03;94531.28;;;22.08;37.99
71057;BME280;58380;48.312;9.246;2023-10-08T12:02:08;94540.47;;;22.07;36.87
71057;BME280;58380;48.312;9.246;2023-10-08T12:05:09;94544.34;;;22.01;39.96
71057;BME280;58380;48.312;9.246;2023-10-08T12:08:19;94552.13;;;22.03;35.86
71057;BME280;58380;48.312;9.246;2023-10-08T12:11:20;94540.38;;;21.98;35.90
71057;BME280;58380;48.312;9.246;2023-10-08T12:14:23;94537.34;;;21.91;35.95
71057;BME280;58380;48.312;9.246;2023-10-08T12:17:30;94540.03;;;21.91;35.40
71057;BME280;58380;48.312;9.246;2023-10-08T12:20:39;94538.09;;;21.83;35.18
71057;BME280;58380;48.312;9.246;2023-10-08T12:23:44;94537.59;;;21.81;36.92
71057;BME280;58380;48.312;9.246;2023-10-08T12:26:46;94532.84;;;21.78;35.76
71057;BME280;58380;48.312;9.246;2023-10-08T12:29:47;94531.75;;;21.79;36.27
71057;BME280;58380;48.312;9.246;2023-10-08T12:32:47;94539.19;;;21.82;37.46
71057;BME280;58380;48.312;9.246;2023-10-08T12:35:48;94541.44;;;21.89;36.87
71057;BME280;58380;48.312;9.246;2023-10-08T12:38:49;94529.09;;;21.88;36.46
71057;BME280;58380;48.312;9.246;2023-10-08T12:41:57;94547.19;;;21.96;37.31
71057;BME280;58380;48.312;9.246;2023-10-08T12:45:05;94532.53;;;21.80;38.14
71057;BME280;58380;48.312;9.246;2023-10-08T12:48:12;94551.09;;;21.90;37.56
71057;BME280;58380;48.312;9.246;2023-10-08T12:51:14;94545.00;;;21.75;38.07
71057;BME280;58380;48.312;9.246;2023-10-08T12:54:15;94535.09;;;21.62;38.47
71057;BME280;58380;48.312;9.246;2023-10-08T12:57:22;94515.84;;;21.46;36.98
71057;BME280;58380;48.312;9.246;2023-10-08T13:00:29;94542.84;;;21.64;37.53
71057;BME280;58380;48.312;9.246;2023-10-08T13:03:29;94545.34;;;21.60;37.37
71057;BME280;58380;48.312;9.246;2023-10-08T13:06:34;94524.50;;;21.43;38.43
71057;BME280;58380;48.312;9.246;2023-10-08T13:09:38;94516.00;;;21.27;37.97
71057;BME280;58380;48.312;9.246;2023-10-08T13:12:38;94508.22;;;21.26;39.07
71057;BME280;58380;48.312;9.246;2023-10-08T13:15:39;94523.53;;;21.25;38.79
71057;BME280;58380;48.312;9.246;2023-10-08T13:18:41;94525.06;;;21.18;40.75
71057;BME280;58380;48.312;9.246;2023-10-08T13:21:43;94520.59;;;21.13;42.38
71057;BME280;58380;48.312;9.246;2023-10-08T13:24:44;94516.63;;;21.10;42.73
71057;BME280;58380;48.312;9.246;2023-10-08T13:27:45;94539.28;;;21.18;41.24
71057;BME280;58380;48.312;9.246;2023-10-08T13:30:51;94523.16;;;21.18;39.24
71057;BME280;58380;48.312;9.246;2023-10-08T13:33:52;94505.66;;;21.21;39.26
71057;BME280;58380;48.312;9.246;2023-10-08T13:36:56;94526.53;;;21.60;37.39
71057;BME280;58380;48.312;9.246;2023-10-08T13:39:57;94504.38;;;21.77;37.38
71057;BME280;58380;48.312;9.246;2023-10-08T13:42:57;94505.56;;;21.93;36.18
71057;BME280;58380;48.312;9.246;2023-10-08T13:46:03;94507.81;;;22.23;36.11
71057;BME280;58380;48.312;9.246;2023-10-08T13:49:04;94497.09;;;22.31;35.10
71057;BME280;58380;48.312;9.246;2023-10-08T13:52:09;94500.34;;;22.51;36.38
71057;BME280;58380;48.312;9.246;2023-10-08T13:55:10;94491.19;;;22.60;39.01
71057;BME280;58380;48.312;9.246;2023-10-08T13:58:13;94479.34;;;22.61;38.98
71057;BME280;58380;48.312;9.246;2023-10-08T14:01:14;94468.53;;;22.53;38.02
71057;BME280;58380;48.312;9.246;2023-10-08T14:04:21;94465.88;;;22.61;36.10
71057;BME280;58380;48.312;9.246;2023-10-08T14:07:26;94476.34;;;22.80;35.83
71057;BME280;58380;48.312;9.246;2023-10-08T14:10:27;94481.00;;;22.97;35.85
71057;BME280;58380;48.312;9.246;2023-10-08T14:13:30;94480.38;;;23.00;35.60
71057;BME280;58380;48.312;9.246;2023-10-08T14:16:33;94464.56;;;22.99;34.11
71057;BME280;58380;48.312;9.246;2023-10-08T14:19:43;94480.56;;;23.21;33.89
71057;BME280;58380;48.312;9.246;2023-10-08T14:22:47;94472.31;;;23.27;33.22
71057;BME280;58380;48.312;9.246;2023-10-08T14:25:57;94466.94;;;23.27;34.05
71057;BME280;58380;48.312;9.246;2023-10-08T14:29:03;94463.75;;;23.07;33.96
71057;BME280;58380;48.312;9.246;2023-10-08T14:32:17;94463.59;;;23.21;34.26
71057;BME280;58380;48.312;9.246;2023-10-08T14:35:18;94464.84;;;23.23;34.43
71057;BME280;58380;48.312;9.246;2023-10-08T14:38:36;94476.28;;;23.20;34.64
71057;BME280;58380;48.312;9.246;2023-10-08T14:41:55;94478.97;;;23.20;34.87
71057;BME280;58380;48.312;9.246;2023-10-08T14:45:14;94479.44;;;23.31;34.66
71057;BME280;58380;48.312;9.246;2023-10-08T14:48:19;94475.94;;;23.31;34.99
71057;BME280;58380;48.312;9.246;2023-10-08T14:51:19;94472.31;;;23.35;33.36
71057;BME280;58380;48.312;9.246;2023-10-08T14:54:20;94472.78;;;23.29;32.70
71057;BME280;58380;48.312;9.246;2023-10-08T14:57:20;94470.09;;;23.20;33.15
71057;BME280;58380;48.312;9.246;2023-10-08T15:00:22;94461.53;;;23.09;33.27
71057;BME280;58380;48.312;9.246;2023-10-08T15:03:24;94450.59;;;23.06;33.91
71057;BME280;58380;48.312;9.246;2023-10-08T15:06:27;94473.75;;;23.07;34.73
71057;BME280;58380;48.312;9.246;2023-10-08T15:09:27;94465.97;;;23.05;33.98
71057;BME280;58380;48.312;9.246;2023-10-08T15:12:28;94468.34;;;22.98;35.88
71057;BME280;58380;48.312;9.246;2023-10-08T15:15:28;94467.34;;;22.94;34.88
71057;BME280;58380;48.312;9.246;2023-10-08T15:18:34;94467.97;;;22.91;35.16
71057;BME280;58380;48.312;9.246;2023-10-08T15:21:42;94475.75;;;22.92;36.07
71057;BME280;58380;48.312;9.246;2023-10-08T15:24:43;94474.16;;;22.82;36.82
71057;BME280;58380;48.312;9.246;2023-10-08T15:27:45;94475.88;;;22.78;37.38
71057;BME280;58380;48.312;9.246;2023-10-08T15:30:47;94470.94;;;22.63;38.31
71057;BME280;58380;48.312;9.246;2023-10-08T15:33:47;94486.38;;;22.40;37.05
71057;BME280;58380;48.312;9.246;2023-10-08T15:36:49;94476.97;;;22.20;37.63
71057;BME280;58380;48.312;9.246;2023-10-08T15:39:50;94477.69;;;22.12;38.19
71057;BME280;58380;48.312;9.246;2023-10-08T15:42:55;94486.03;;;22.02;37.59
71057;BME280;58380;48.312;9.246;2023-10-08T15:45:56;94485.31;;;21.87;41.19
71057;BME280;58380;48.312;9.246;2023-10-08T15:48:57;94479.28;;;21.59;42.70
71057;BME280;58380;48.312;9.246;2023-10-08T15:51:57;94486.81;;;21.35;44.46
71057;BME280;58380;48.312;9.246;2023-10-08T15:54:57;94477.03;;;21.16;42.84
71057;BME280;58380;48.312;9.246;2023-10-08T15:57:58;94481.72;;;21.10;42.74
71057;BME280;58380;48.312;9.246;2023-10-08T16:00:59;94470.03;;;20.93;43.51
71057;BME280;58380;48.312;9.246;2023-10-08T16:03:59;94477.13;;;20.75;48.15
71057;BME280;58380;48.312;9.246;2023-10-08T16:07:00;94471.38;;;20.40;48.27
71057;BME280;58380;48.312;9.246;2023-10-08T16:10:00;94472.16;;;20.13;47.23
71057;BME280;58380;48.312;9.246;2023-10-08T16:13:01;94479.59;;;20.02;50.19
71057;BME280;58380;48.312;9.246;2023-10-08T16:16:01;94487.00;;;19.77;51.79
71057;BME280;58380;48.312;9.246;2023-10-08T16:19:02;94488.59;;;19.59;53.22
71057;BME280;58380;48.312;9.246;2023-10-08T16:22:03;94484.94;;;19.36;51.95
71057;BME280;58380;48.312;9.246;2023-10-08T16:25:04;94479.53;;;19.23;52.62
71057;BME280;58380;48.312;9.246;2023-10-08T16:28:06;94485.59;;;19.09;53.20
71057;BME280;58380;48.312;9.246;2023-10-08T16:31:08;94482.88;;;18.71;56.60
71057;BME280;58380;48.312;9.246;2023-10-08T16:34:12;94486.97;;;18.45;58.53
71057;BME280;58380;48.312;9.246;2023-10-08T16:37:12;94490.75;;;18.20;59.91
71057;BME280;58380;48.312;9.246;2023-10-08T16:40:21;94487.28;;;17.90;62.37
71057;BME280;58380;48.312;9.246;2023-10-08T16:43:22;94485.84;;;17.68;62.89
71057;BME280;58380;48.312;9.246;2023-10-08T16:46:23;94485.19;;;17.53;62.00
71057;BME280;58380;48.312;9.246;2023-10-08T16:49:23;94484.47;;;17.42;62.74
71057;BME280;58380;48.312;9.246;2023-10-08T16:52:27;94498.38;;;17.39;63.11
71057;BME280;58380;48.312;9.246;2023-10-08T16:55:27;94496.66;;;17.19;64.29
71057;BME280;58380;48.312;9.246;2023-10-08T16:58:28;94501.00;;;17.04;65.07
71057;BME280;58380;48.312;9.246;2023-10-08T17:01:29;94492.88;;;16.86;65.34
71057;BME280;58380;48.312;9.246;2023-10-08T17:04:29;94498.50;;;16.74;65.67
71057;BME280;58380;48.312;9.246;2023-10-08T17:07:30;94499.09;;;16.60;66.18
71057;BME280;58380;48.312;9.246;2023-10-08T17:10:30;94496.00;;;16.33;68.57
71057;BME280;58380;48.312;9.246;2023-10-08T17:13:31;94513.63;;;16.18;69.08
71057;BME280;58380;48.312;9.246;2023-10-08T17:16:32;94493.19;;;15.88;69.72
71057;BME280;58380;48.312;9.246;2023-10-08T17:19:32;94505.19;;;15.81;70.04
71057;BME280;58380;48.312;9.246;2023-10-08T17:22:33;94495.88;;;15.58;71.95
71057;BME280;58380;48.312;9.246;2023-10-08T17:25:33;94496.16;;;15.36;73.55
71057;BME280;58380;48.312;9.246;2023-10-08T17:28:34;94507.28;;;15.17;74.52
71057;BME280;58380;48.312;9.246;2023-10-08T17:31:35;94511.81;;;15.12;75.60
71057;BME280;58380;48.312;9.246;2023-10-08T17:34:37;94509.69;;;15.03;75.15
71057;BME280;58380;48.312;9.246;2023-10-08T17:37:37;94517.34;;;14.95;73.76
71057;BME280;58380;48.312;9.246;2023-10-08T17:40:38;94510.16;;;14.85;73.41
71057;BME280;58380;48.312;9.246;2023-10-08T17:43:42;94506.91;;;14.67;74.31
71057;BME280;58380;48.312;9.246;2023-10-08T17:46:43;94520.16;;;14.57;74.33
71057;BME280;58380;48.312;9.246;2023-10-08T17:49:44;94524.84;;;14.40;75.39
71057;BME280;58380;48.312;9.246;2023-10-08T17:52:44;94513.78;;;14.00;77.57
71057;BME280;58380;48.312;9.246;2023-10-08T17:55:46;94526.50;;;13.93;77.81
71057;BME280;58380;48.312;9.246;2023-10-08T17:58:47;94515.47;;;13.74;77.98
71057;BME280;58380;48.312;9.246;2023-10-08T18:01:47;94515.09;;;13.55;78.34
71057;BME280;58380;48.312;9.246;2023-10-08T18:04:48;94522.50;;;13.26;79.27
71057;BME280;58380;48.312;9.246;2023-10-08T18:07:49;94525.78;;;13.33;79.28
71057;BME280;58380;48.312;9.246;2023-10-08T18:10:52;94522.03;;;13.29;79.16
71057;BME280;58380;48.312;9.246;2023-10-08T18:13:52;94515.72;;;13.08;80.47
71057;BME280;58380;48.312;9.246;2023-10-08T18:16:54;94510.06;;;13.00;80.78
71057;BME280;58380;48.312;9.246;2023-10-08T18:19:56;94520.72;;;13.05;81.06
71057;BME280;58380;48.312;9.246;2023-10-08T18:22:56;94508.72;;;12.70;82.57
71057;BME280;58380;48.312;9.246;2023-10-08T18:25:57;94511.97;;;12.77;82.18
71057;BME280;58380;48.312;9.246;2023-10-08T18:28:57;94515.22;;;12.84;81.97
71057;BME280;58380;48.312;9.246;2023-10-08T18:31:58;94519.97;;;12.82;81.72
71057;BME280;58380;48.312;9.246;2023-10-08T18:35:04;94509.53;;;12.70;81.89
71057;BME280;58380;48.312;9.246;2023-10-08T18:38:07;94516.19;;;12.73;82.71
71057;BME280;58380;48.312;9.246;2023-10-08T18:41:08;94500.44;;;12.39;84.08
71057;BME280;58380;48.312;9.246;2023-10-08T18:44:10;94517.06;;;12.35;84.70
71057;BME280;58380;48.312;9.246;2023-10-08T18:47:11;94518.66;;;12.36;84.63
71057;BME280;58380;48.312;9.246;2023-10-08T18:50:11;94488.41;;;12.09;85.72
71057;BME280;58380;48.312;9.246;2023-10-08T18:53:15;94525.78;;;12.35;86.00
71057;BME280;58380;48.312;9.246;2023-10-08T18:56:16;94518.84;;;12.29;85.85
71057;BME280;58380;48.312;9.246;2023-10-08T18:59:18;94505.47;;;12.19;85.53
71057;BME280;58380;48.312;9.246;2023-10-08T19:02:20;94518.31;;;12.10;86.63
71057;BME280;58380;48.312;9.246;2023-10-08T19:05:22;94512.66;;;11.84;87.95
71057;BME280;58380;48.312;9.246;2023-10-08T19:08:22;94500.38;;;11.73;88.25
71057;BME280;58380;48.312;9.246;2023-10-08T19:11:23;94505.47;;;11.63;88.72
71057;BME280;58380;48.312;9.246;2023-10-08T19:14:24;94460.66;;;11.17;89.86
71057;BME280;58380;48.312;9.246;2023-10-08T19:17:26;94509.75;;;11.47;90.06
71057;BME280;58380;48.312;9.246;2023-10-08T19:20:27;94490.59;;;11.06;91.43
71057;BME280;58380;48.312;9.246;2023-10-08T19:23:29;94503.16;;;10.99;92.03
71057;BME280;58380;48.312;9.246;2023-10-08T19:26:29;94504.63;;;10.78;92.02
71057;BME280;58380;48.312;9.246;2023-10-08T19:29:30;94507.25;;;10.61;93.52
71057;BME280;58380;48.312;9.246;2023-10-08T19:32:35;94488.72;;;10.44;94.04
71057;BME280;58380;48.312;9.246;2023-10-08T19:35:36;94481.19;;;10.36;93.92
71057;BME280;58380;48.312;9.246;2023-10-08T19:38:38;94502.25;;;10.48;94.67
71057;BME280;58380;48.312;9.246;2023-10-08T19:41:39;94509.31;;;10.59;93.45
71057;BME280;58380;48.312;9.246;2023-10-08T19:44:40;94497.72;;;10.60;92.92
71057;BME280;58380;48.312;9.246;2023-10-08T19:47:44;94506.69;;;10.59;93.31
71057;BME280;58380;48.312;9.246;2023-10-08T19:50:45;94504.88;;;10.48;93.76
71057;BME280;58380;48.312;9.246;2023-10-08T19:53:50;94514.91;;;10.34;94.35
71057;BME280;58380;48.312;9.246;2023-10-08T19:56:55;94470.03;;;9.93;95.05
71057;BME280;58380;48.312;9.246;2023-10-08T19:59:59;94495.69;;;9.98;95.17
71057;BME280;58380;48.312;9.246;2023-10-08T20:02:59;94503.06;;;9.84;96.32
71057;BME280;58380;48.312;9.246;2023-10-08T20:06:00;94507.44;;;9.67;97.02
71057;BME280;58380;48.312;9.246;2023-10-08T20:09:02;94509.72;;;9.52;97.86
71057;BME280;58380;48.312;9.246;2023-10-08T20:12:06;94519.34;;;9.58;97.73
71057;BME280;58380;48.312;9.246;2023-10-08T20:15:08;94509.72;;;9.52;97.90
71057;BME280;58380;48.312;9.246;2023-10-08T20:18:11;94512.13;;;9.53;97.81
71057;BME280;58380;48.312;9.246;2023-10-08T20:21:12;94489.31;;;9.47;97.80
71057;BME280;58380;48.312;9.246;2023-10-08T20:24:13;94502.03;;;9.62;97.16
71057;BME280;58380;48.312;9.246;2023-10-08T20:27:13;94508.09;;;9.62;97.49
71057;BME280;58380;48.312;9.246;2023-10-08T20:30:17;94514.19;;;9.75;96.52
71057;BME280;58380;48.312;9.246;2023-10-08T20:33:20;94512.69;;;9.67;96.98
71057;BME280;58380;48.312;9.246;2023-10-08T20:36:21;94507.56;;;9.48;97.72
71057;BME280;58380;48.312;9.246;2023-10-08T20:39:21;94504.44;;;9.40;98.70
71057;BME280;58380;48.312;9.246;2023-10-08T20:42:29;94508.44;;;9.31;98.19
71057;BME280;58380;48.312;9.246;2023-10-08T20:45:30;94491.94;;;9.12;97.60
71057;BME280;58380;48.312;9.246;2023-10-08T20:48:31;94496.94;;;8.90;97.59
71057;BME280;58380;48.312;9.246;2023-10-08T20:51:32;94483.47;;;8.68;99.20
71057;BME280;58380;48.312;9.246;2023-10-08T20:54:33;94495.03;;;8.67;100.00
71057;BME280;58380;48.312;9.246;2023-10-08T20:57:33;94494.41;;;8.53;100.00
